sensor_id;sensor_type;location;lat;lon;timestamp;P1;durP1;ratioP1;P2;durP2;ratioP2
18804;SDS011;9530;48.930;9.526;2023-03-17T00:02:20;5.50;;;3.30;;
18804;SDS011;9530;48.930;9.526;2023-03-17T00:04:48;3.23;;;2.77;;
18804;SDS011;9530;48.930;9.526;2023-03-17T00:07:16;4.10;;;2.70;;
18804;SDS011;9530;48.930;9.526;2023-03-17T00:09:43;3.80;;;2.83;;
18804;SDS011;9530;48.930;9.526;2023-03-17T00:12:10;4.80;;;2.80;;
18804;SDS011;9530;48.930;9.526;2023-03-17T00:14:37;3.73;;;2.83;;
18804;SDS011;9530;48.930;9.526;2023-03-17T00:17:04;4.57;;;2.90;;
18804;SDS011;9530;48.930;9.526;2023-03-17T00:19:33;4.50;;;2.87;;
18804;SDS011;9530;48.930;9.526;2023-03-17T00:22:01;6.53;;;3.10;;
18804;SDS011;9530;48.930;9.526;2023-03-17T00:24:30;3.13;;;2.83;;
18804;SDS011;9530;48.930;9.526;2023-03-17T00:26:57;4.10;;;3.00;;
18804;SDS011;9530;48.930;9.526;2023-03-17T00:29:24;4.77;;;2.70;;
18804;SDS011;9530;48.930;9.526;2023-03-17T00:31:50;3.67;;;3.00;;
18804;SDS011;9530;48.930;9.526;2023-03-17T00:34:18;4.77;;;3.40;;
18804;SDS011;9530;48.930;9.526;2023-03-17T00:36:47;3.93;;;2.70;;
18804;SDS011;9530;48.930;9.526;2023-03-17T00:39:15;3.37;;;2.67;;
18804;SDS011;9530;48.930;9.526;2023-03-17T00:41:42;4.00;;;3.10;;
18804;SDS011;9530;48.930;9.526;2023-03-17T00:44:09;4.03;;;2.73;;
18804;SDS011;9530;48.930;9.526;2023-03-17T00:46:36;4.53;;;2.80;;
18804;SDS011;9530;48.930;9.526;2023-03-17T00:49:09;3.70;;;2.97;;
18804;SDS011;9530;48.930;9.526;2023-03-17T00:51:40;5.13;;;3.03;;
18804;SDS011;9530;48.930;9.526;2023-03-17T00:54:09;4.43;;;3.43;;
18804;SDS011;9530;48.930;9.526;2023-03-17T00:56:36;3.90;;;2.83;;
18804;SDS011;9530;48.930;9.526;2023-03-17T00:59:04;3.77;;;2.90;;
18804;SDS011;9530;48.930;9.526;2023-03-17T01:01:40;4.00;;;3.00;;
18804;SDS011;9530;48.930;9.526;2023-03-17T01:04:07;4.00;;;3.10;;
18804;SDS011;9530;48.930;9.526;2023-03-17T01:06:34;6.33;;;3.37;;
18804;SDS011;9530;48.930;9.526;2023-03-17T01:09:02;4.50;;;2.90;;
18804;SDS011;9530;48.930;9.526;2023-03-17T01:11:30;5.13;;;2.90;;
18804;SDS011;9530;48.930;9.526;2023-03-17T01:13:57;3.83;;;2.57;;
18804;SDS011;9530;48.930;9.526;2023-03-17T01:16:23;4.47;;;2.70;;
18804;SDS011;9530;48.930;9.526;2023-03-17T01:18:50;4.47;;;2.80;;
18804;SDS011;9530;48.930;9.526;2023-03-17T01:21:17;4.67;;;3.10;;
18804;SDS011;9530;48.930;9.526;2023-03-17T01:23:44;3.97;;;2.90;;
18804;SDS011;9530;48.930;9.526;2023-03-17T01:26:11;6.70;;;3.30;;
18804;SDS011;9530;48.930;9.526;2023-03-17T01:28:39;4.30;;;3.10;;
18804;SDS011;9530;48.930;9.526;2023-03-17T01:31:06;4.07;;;2.93;;
18804;SDS011;9530;48.930;9.526;2023-03-17T01:33:33;4.43;;;2.60;;
18804;SDS011;9530;48.930;9.526;2023-03-17T01:36:00;3.70;;;2.70;;
18804;SDS011;9530;48.930;9.526;2023-03-17T01:38:27;3.43;;;2.80;;
18804;SDS011;9530;48.930;9.526;2023-03-17T01:40:53;4.57;;;3.03;;
18804;SDS011;9530;48.930;9.526;2023-03-17T01:43:21;4.03;;;2.97;;
18804;SDS011;9530;48.930;9.526;2023-03-17T01:48:54;6.10;;;3.10;;
18804;SDS011;9530;48.930;9.526;2023-03-17T01:51:26;4.70;;;2.93;;
18804;SDS011;9530;48.930;9.526;2023-03-17T01:53:57;4.97;;;2.83;;
18804;SDS011;9530;48.930;9.526;2023-03-17T01:56:25;4.93;;;2.73;;
18804;SDS011;9530;48.930;9.526;2023-03-17T01:58:52;5.17;;;2.67;;
18804;SDS011;9530;48.930;9.526;2023-03-17T02:01:22;2.77;;;2.37;;
18804;SDS011;9530;48.930;9.526;2023-03-17T02:03:54;3.27;;;2.50;;
18804;SDS011;9530;48.930;9.526;2023-03-17T02:06:21;3.40;;;2.60;;
18804;SDS011;9530;48.930;9.526;2023-03-17T02:08:48;4.13;;;2.80;;
18804;SDS011;9530;48.930;9.526;2023-03-17T02:11:16;6.37;;;2.87;;
18804;SDS011;9530;48.930;9.526;2023-03-17T02:13:43;3.57;;;2.40;;
18804;SDS011;9530;48.930;9.526;2023-03-17T02:16:12;4.47;;;2.57;;
18804;SDS011;9530;48.930;9.526;2023-03-17T02:18:42;3.23;;;2.40;;
18804;SDS011;9530;48.930;9.526;2023-03-17T02:24:03;4.57;;;2.40;;
18804;SDS011;9530;48.930;9.526;2023-03-17T02:26:33;3.67;;;2.13;;
18804;SDS011;9530;48.930;9.526;2023-03-17T02:29:01;3.23;;;2.60;;
18804;SDS011;9530;48.930;9.526;2023-03-17T02:31:29;2.77;;;2.30;;
18804;SDS011;9530;48.930;9.526;2023-03-17T02:33:56;3.53;;;2.50;;
18804;SDS011;9530;48.930;9.526;2023-03-17T02:36:23;3.23;;;2.60;;
18804;SDS011;9530;48.930;9.526;2023-03-17T02:38:51;4.47;;;2.70;;
18804;SDS011;9530;48.930;9.526;2023-03-17T02:41:18;3.53;;;2.67;;
18804;SDS011;9530;48.930;9.526;2023-03-17T02:43:45;3.30;;;2.70;;
18804;SDS011;9530;48.930;9.526;2023-03-17T02:46:12;3.70;;;2.60;;
18804;SDS011;9530;48.930;9.526;2023-03-17T02:48:39;4.27;;;2.53;;
18804;SDS011;9530;48.930;9.526;2023-03-17T02:51:06;4.43;;;2.57;;
18804;SDS011;9530;48.930;9.526;2023-03-17T02:53:33;3.93;;;2.70;;
18804;SDS011;9530;48.930;9.526;2023-03-17T02:56:01;3.50;;;2.47;;
18804;SDS011;9530;48.930;9.526;2023-03-17T02:58:28;3.83;;;2.87;;
18804;SDS011;9530;48.930;9.526;2023-03-17T03:00:55;3.60;;;2.60;;
18804;SDS011;9530;48.930;9.526;2023-03-17T03:03:22;3.63;;;2.40;;
18804;SDS011;9530;48.930;9.526;2023-03-17T03:05:48;3.27;;;2.53;;
18804;SDS011;9530;48.930;9.526;2023-03-17T03:08:15;3.27;;;2.60;;
18804;SDS011;9530;48.930;9.526;2023-03-17T03:10:42;4.40;;;2.90;;
18804;SDS011;9530;48.930;9.526;2023-03-17T03:13:10;3.03;;;2.20;;
18804;SDS011;9530;48.930;9.526;2023-03-17T03:15:39;3.00;;;2.60;;
18804;SDS011;9530;48.930;9.526;2023-03-17T03:18:06;3.50;;;2.60;;
18804;SDS011;9530;48.930;9.526;2023-03-17T03:20:33;3.70;;;2.50;;
18804;SDS011;9530;48.930;9.526;2023-03-17T03:23:00;4.63;;;2.43;;
18804;SDS011;9530;48.930;9.526;2023-03-17T03:25:27;2.93;;;2.13;;
18804;SDS011;9530;48.930;9.526;2023-03-17T03:27:54;2.90;;;2.10;;
18804;SDS011;9530;48.930;9.526;2023-03-17T03:30:22;3.20;;;2.40;;
18804;SDS011;9530;48.930;9.526;2023-03-17T03:32:49;3.70;;;2.50;;
18804;SDS011;9530;48.930;9.526;2023-03-17T03:35:15;2.40;;;2.20;;
18804;SDS011;9530;48.930;9.526;2023-03-17T03:37:42;5.47;;;2.30;;
18804;SDS011;9530;48.930;9.526;2023-03-17T03:40:09;4.33;;;2.30;;
18804;SDS011;9530;48.930;9.526;2023-03-17T03:42:37;2.70;;;2.00;;
18804;SDS011;9530;48.930;9.526;2023-03-17T03:45:04;3.50;;;2.23;;
18804;SDS011;9530;48.930;9.526;2023-03-17T03:47:33;2.87;;;2.20;;
18804;SDS011;9530;48.930;9.526;2023-03-17T03:50:00;3.13;;;2.40;;
18804;SDS011;9530;48.930;9.526;2023-03-17T03:52:26;3.40;;;2.57;;
18804;SDS011;9530;48.930;9.526;2023-03-17T03:54:53;2.90;;;2.37;;
18804;SDS011;9530;48.930;9.526;2023-03-17T03:57:20;4.20;;;2.30;;
18804;SDS011;9530;48.930;9.526;2023-03-17T03:59:46;3.30;;;3.00;;
18804;SDS011;9530;48.930;9.526;2023-03-17T04:02:13;3.57;;;3.07;;
18804;SDS011;9530;48.930;9.526;2023-03-17T04:04:42;3.40;;;2.80;;
18804;SDS011;9530;48.930;9.526;2023-03-17T04:07:09;3.87;;;2.30;;
18804;SDS011;9530;48.930;9.526;2023-03-17T04:09:36;6.63;;;2.40;;
18804;SDS011;9530;48.930;9.526;2023-03-17T04:12:04;3.90;;;2.40;;
18804;SDS011;9530;48.930;9.526;2023-03-17T04:14:31;4.50;;;2.60;;
18804;SDS011;9530;48.930;9.526;2023-03-17T04:16:58;4.50;;;2.97;;
18804;SDS011;9530;48.930;9.526;2023-03-17T04:19:25;3.57;;;2.50;;
18804;SDS011;9530;48.930;9.526;2023-03-17T04:21:54;3.60;;;2.60;;
18804;SDS011;9530;48.930;9.526;2023-03-17T04:24:21;3.17;;;2.70;;
18804;SDS011;9530;48.930;9.526;2023-03-17T04:26:47;3.60;;;2.63;;
18804;SDS011;9530;48.930;9.526;2023-03-17T04:29:14;4.83;;;2.90;;
18804;SDS011;9530;48.930;9.526;2023-03-17T04:31:41;4.80;;;3.03;;
18804;SDS011;9530;48.930;9.526;2023-03-17T04:34:09;2.70;;;2.30;;
18804;SDS011;9530;48.930;9.526;2023-03-17T04:36:39;2.77;;;2.17;;
18804;SDS011;9530;48.930;9.526;2023-03-17T04:39:07;4.77;;;2.80;;
18804;SDS011;9530;48.930;9.526;2023-03-17T04:41:34;4.00;;;2.50;;
18804;SDS011;9530;48.930;9.526;2023-03-17T04:44:01;5.07;;;2.57;;
18804;SDS011;9530;48.930;9.526;2023-03-17T04:46:28;4.40;;;2.57;;
18804;SDS011;9530;48.930;9.526;2023-03-17T04:48:55;3.07;;;2.20;;
18804;SDS011;9530;48.930;9.526;2023-03-17T04:51:22;3.40;;;2.33;;
18804;SDS011;9530;48.930;9.526;2023-03-17T04:53:49;2.80;;;2.33;;
18804;SDS011;9530;48.930;9.526;2023-03-17T04:56:17;3.77;;;2.27;;
18804;SDS011;9530;48.930;9.526;2023-03-17T04:58:45;3.83;;;2.40;;
18804;SDS011;9530;48.930;9.526;2023-03-17T05:01:11;4.27;;;2.60;;
18804;SDS011;9530;48.930;9.526;2023-03-17T05:03:38;2.70;;;2.40;;
18804;SDS011;9530;48.930;9.526;2023-03-17T05:06:05;2.97;;;2.60;;
18804;SDS011;9530;48.930;9.526;2023-03-17T05:08:32;4.43;;;2.53;;
18804;SDS011;9530;48.930;9.526;2023-03-17T05:10:59;4.27;;;2.60;;
18804;SDS011;9530;48.930;9.526;2023-03-17T05:13:27;3.27;;;2.37;;
18804;SDS011;9530;48.930;9.526;2023-03-17T05:15:54;3.70;;;2.40;;
18804;SDS011;9530;48.930;9.526;2023-03-17T05:18:22;4.37;;;3.00;;
18804;SDS011;9530;48.930;9.526;2023-03-17T05:20:50;2.67;;;2.33;;
18804;SDS011;9530;48.930;9.526;2023-03-17T05:23:16;3.53;;;2.73;;
18804;SDS011;9530;48.930;9.526;2023-03-17T05:25:43;4.23;;;3.20;;
18804;SDS011;9530;48.930;9.526;2023-03-17T05:28:10;4.37;;;3.00;;
18804;SDS011;9530;48.930;9.526;2023-03-17T05:30:39;4.67;;;2.73;;
18804;SDS011;9530;48.930;9.526;2023-03-17T05:33:07;3.40;;;2.70;;
18804;SDS011;9530;48.930;9.526;2023-03-17T05:35:34;5.20;;;3.30;;
18804;SDS011;9530;48.930;9.526;2023-03-17T05:38:00;4.63;;;3.10;;
18804;SDS011;9530;48.930;9.526;2023-03-17T05:40:27;5.03;;;3.03;;
18804;SDS011;9530;48.930;9.526;2023-03-17T05:42:54;5.87;;;2.90;;
18804;SDS011;9530;48.930;9.526;2023-03-17T05:45:20;5.67;;;4.90;;
18804;SDS011;9530;48.930;9.526;2023-03-17T05:47:48;6.40;;;3.93;;
18804;SDS011;9530;48.930;9.526;2023-03-17T05:50:15;5.23;;;3.70;;
18804;SDS011;9530;48.930;9.526;2023-03-17T05:52:42;4.47;;;3.50;;
18804;SDS011;9530;48.930;9.526;2023-03-17T05:55:09;8.73;;;6.40;;
18804;SDS011;9530;48.930;9.526;2023-03-17T05:57:36;9.23;;;8.23;;
18804;SDS011;9530;48.930;9.526;2023-03-17T06:00:03;5.73;;;4.53;;
18804;SDS011;9530;48.930;9.526;2023-03-17T06:02:30;6.97;;;3.83;;
18804;SDS011;9530;48.930;9.526;2023-03-17T06:04:58;6.30;;;3.67;;
18804;SDS011;9530;48.930;9.526;2023-03-17T06:07:26;5.93;;;3.50;;
18804;SDS011;9530;48.930;9.526;2023-03-17T06:09:53;7.60;;;4.47;;
18804;SDS011;9530;48.930;9.526;2023-03-17T06:12:19;6.33;;;4.30;;
18804;SDS011;9530;48.930;9.526;2023-03-17T06:14:46;6.93;;;3.90;;
18804;SDS011;9530;48.930;9.526;2023-03-17T06:17:13;5.17;;;3.80;;
18804;SDS011;9530;48.930;9.526;2023-03-17T06:19:40;5.33;;;3.90;;
18804;SDS011;9530;48.930;9.526;2023-03-17T06:22:08;6.60;;;3.77;;
18804;SDS011;9530;48.930;9.526;2023-03-17T06:24:35;5.47;;;4.07;;
18804;SDS011;9530;48.930;9.526;2023-03-17T06:27:02;13.07;;;11.80;;
18804;SDS011;9530;48.930;9.526;2023-03-17T06:29:29;14.43;;;12.93;;
18804;SDS011;9530;48.930;9.526;2023-03-17T06:31:56;14.10;;;11.93;;
18804;SDS011;9530;48.930;9.526;2023-03-17T06:34:24;10.13;;;8.63;;
18804;SDS011;9530;48.930;9.526;2023-03-17T06:36:51;8.30;;;7.40;;
18804;SDS011;9530;48.930;9.526;2023-03-17T06:39:19;11.27;;;6.73;;
18804;SDS011;9530;48.930;9.526;2023-03-17T06:41:46;9.10;;;5.30;;
18804;SDS011;9530;48.930;9.526;2023-03-17T06:44:13;12.87;;;5.93;;
18804;SDS011;9530;48.930;9.526;2023-03-17T06:46:40;8.37;;;5.40;;
18804;SDS011;9530;48.930;9.526;2023-03-17T06:49:06;8.83;;;5.33;;
18804;SDS011;9530;48.930;9.526;2023-03-17T06:51:37;7.60;;;5.27;;
18804;SDS011;9530;48.930;9.526;2023-03-17T06:54:04;11.10;;;5.10;;
18804;SDS011;9530;48.930;9.526;2023-03-17T06:56:33;6.23;;;4.97;;
18804;SDS011;9530;48.930;9.526;2023-03-17T06:58:59;8.43;;;4.80;;
18804;SDS011;9530;48.930;9.526;2023-03-17T07:01:27;5.83;;;4.43;;
18804;SDS011;9530;48.930;9.526;2023-03-17T07:03:53;7.83;;;4.83;;
18804;SDS011;9530;48.930;9.526;2023-03-17T07:06:20;5.70;;;4.63;;
18804;SDS011;9530;48.930;9.526;2023-03-17T07:08:47;10.23;;;5.03;;
18804;SDS011;9530;48.930;9.526;2023-03-17T07:11:14;6.77;;;4.67;;
18804;SDS011;9530;48.930;9.526;2023-03-17T07:13:42;7.43;;;4.90;;
18804;SDS011;9530;48.930;9.526;2023-03-17T07:16:10;9.53;;;4.80;;
18804;SDS011;9530;48.930;9.526;2023-03-17T07:18:39;6.93;;;4.73;;
18804;SDS011;9530;48.930;9.526;2023-03-17T07:21:05;9.57;;;5.73;;
18804;SDS011;9530;48.930;9.526;2023-03-17T07:23:32;10.63;;;5.90;;
18804;SDS011;9530;48.930;9.526;2023-03-17T07:25:59;13.53;;;5.60;;
18804;SDS011;9530;48.930;9.526;2023-03-17T07:28:26;13.43;;;5.63;;
18804;SDS011;9530;48.930;9.526;2023-03-17T07:30:54;15.37;;;10.70;;
18804;SDS011;9530;48.930;9.526;2023-03-17T07:33:22;15.90;;;8.20;;
18804;SDS011;9530;48.930;9.526;2023-03-17T07:35:49;14.50;;;7.77;;
18804;SDS011;9530;48.930;9.526;2023-03-17T07:38:18;17.37;;;6.53;;
18804;SDS011;9530;48.930;9.526;2023-03-17T07:40:45;16.10;;;5.87;;
18804;SDS011;9530;48.930;9.526;2023-03-17T07:43:13;11.30;;;5.80;;
18804;SDS011;9530;48.930;9.526;2023-03-17T07:45:40;10.63;;;7.47;;
18804;SDS011;9530;48.930;9.526;2023-03-17T07:48:08;8.17;;;5.37;;
18804;SDS011;9530;48.930;9.526;2023-03-17T07:50:35;8.43;;;4.77;;
18804;SDS011;9530;48.930;9.526;2023-03-17T07:53:02;5.90;;;3.80;;
18804;SDS011;9530;48.930;9.526;2023-03-17T07:55:29;5.67;;;3.17;;
18804;SDS011;9530;48.930;9.526;2023-03-17T07:57:56;4.13;;;2.90;;
18804;SDS011;9530;48.930;9.526;2023-03-17T08:00:23;8.20;;;2.77;;
18804;SDS011;9530;48.930;9.526;2023-03-17T08:02:51;4.97;;;3.20;;
18804;SDS011;9530;48.930;9.526;2023-03-17T08:05:19;4.87;;;3.30;;
18804;SDS011;9530;48.930;9.526;2023-03-17T08:07:45;5.47;;;3.07;;
18804;SDS011;9530;48.930;9.526;2023-03-17T08:10:12;4.50;;;2.83;;
18804;SDS011;9530;48.930;9.526;2023-03-17T08:12:39;4.57;;;3.07;;
18804;SDS011;9530;48.930;9.526;2023-03-17T08:15:07;4.60;;;3.70;;
18804;SDS011;9530;48.930;9.526;2023-03-17T08:17:34;4.97;;;2.90;;
18804;SDS011;9530;48.930;9.526;2023-03-17T08:20:02;3.90;;;3.17;;
18804;SDS011;9530;48.930;9.526;2023-03-17T08:22:30;5.43;;;3.20;;
18804;SDS011;9530;48.930;9.526;2023-03-17T08:24:57;7.50;;;3.63;;
18804;SDS011;9530;48.930;9.526;2023-03-17T08:27:24;4.67;;;3.70;;
18804;SDS011;9530;48.930;9.526;2023-03-17T08:29:51;6.27;;;3.70;;
18804;SDS011;9530;48.930;9.526;2023-03-17T08:32:17;6.37;;;3.57;;
18804;SDS011;9530;48.930;9.526;2023-03-17T08:34:44;5.23;;;4.10;;
18804;SDS011;9530;48.930;9.526;2023-03-17T08:37:12;4.37;;;3.10;;
18804;SDS011;9530;48.930;9.526;2023-03-17T08:39:40;4.80;;;3.33;;
18804;SDS011;9530;48.930;9.526;2023-03-17T08:42:07;5.40;;;3.17;;
18804;SDS011;9530;48.930;9.526;2023-03-17T08:44:33;6.77;;;3.60;;
18804;SDS011;9530;48.930;9.526;2023-03-17T08:47:01;4.87;;;3.30;;
18804;SDS011;9530;48.930;9.526;2023-03-17T08:49:27;5.33;;;3.13;;
18804;SDS011;9530;48.930;9.526;2023-03-17T08:51:55;5.03;;;3.60;;
18804;SDS011;9530;48.930;9.526;2023-03-17T08:54:22;4.87;;;3.63;;
18804;SDS011;9530;48.930;9.526;2023-03-17T08:56:50;5.50;;;3.43;;
18804;SDS011;9530;48.930;9.526;2023-03-17T08:59:16;5.13;;;3.50;;
18804;SDS011;9530;48.930;9.526;2023-03-17T09:01:43;4.73;;;3.33;;
18804;SDS011;9530;48.930;9.526;2023-03-17T09:04:11;5.53;;;3.50;;
18804;SDS011;9530;48.930;9.526;2023-03-17T09:06:37;4.83;;;3.00;;
18804;SDS011;9530;48.930;9.526;2023-03-17T09:09:04;4.23;;;3.07;;
18804;SDS011;9530;48.930;9.526;2023-03-17T09:11:31;4.43;;;2.97;;
18804;SDS011;9530;48.930;9.526;2023-03-17T09:14:00;4.53;;;3.40;;
18804;SDS011;9530;48.930;9.526;2023-03-17T09:16:27;4.47;;;2.40;;
18804;SDS011;9530;48.930;9.526;2023-03-17T09:18:57;3.33;;;2.50;;
18804;SDS011;9530;48.930;9.526;2023-03-17T09:21:24;3.57;;;2.27;;
18804;SDS011;9530;48.930;9.526;2023-03-17T09:23:51;2.90;;;2.10;;
18804;SDS011;9530;48.930;9.526;2023-03-17T09:26:18;4.20;;;2.60;;
18804;SDS011;9530;48.930;9.526;2023-03-17T09:28:45;3.30;;;2.50;;
18804;SDS011;9530;48.930;9.526;2023-03-17T09:31:13;5.10;;;2.60;;
18804;SDS011;9530;48.930;9.526;2023-03-17T09:33:40;2.77;;;2.10;;
18804;SDS011;9530;48.930;9.526;2023-03-17T09:36:07;5.03;;;2.20;;
18804;SDS011;9530;48.930;9.526;2023-03-17T09:38:34;3.53;;;1.77;;
18804;SDS011;9530;48.930;9.526;2023-03-17T09:41:03;4.33;;;2.10;;
18804;SDS011;9530;48.930;9.526;2023-03-17T09:43:49;3.50;;;2.10;;
18804;SDS011;9530;48.930;9.526;2023-03-17T09:46:26;2.90;;;1.77;;
18804;SDS011;9530;48.930;9.526;2023-03-17T09:48:58;2.93;;;2.13;;
18804;SDS011;9530;48.930;9.526;2023-03-17T09:51:26;3.57;;;2.03;;
18804;SDS011;9530;48.930;9.526;2023-03-17T09:53:55;4.10;;;1.53;;
18804;SDS011;9530;48.930;9.526;2023-03-17T09:56:25;4.67;;;1.80;;
18804;SDS011;9530;48.930;9.526;2023-03-17T09:58:54;6.40;;;2.00;;
18804;SDS011;9530;48.930;9.526;2023-03-17T10:01:24;2.50;;;1.73;;
18804;SDS011;9530;48.930;9.526;2023-03-17T10:03:51;2.70;;;1.90;;
18804;SDS011;9530;48.930;9.526;2023-03-17T10:06:23;2.37;;;1.60;;
18804;SDS011;9530;48.930;9.526;2023-03-17T10:08:59;2.33;;;1.77;;
18804;SDS011;9530;48.930;9.526;2023-03-17T10:11:32;3.00;;;1.70;;
18804;SDS011;9530;48.930;9.526;2023-03-17T10:14:06;3.97;;;1.70;;
18804;SDS011;9530;48.930;9.526;2023-03-17T10:16:42;2.40;;;1.77;;
18804;SDS011;9530;48.930;9.526;2023-03-17T10:19:17;3.27;;;1.80;;
18804;SDS011;9530;48.930;9.526;2023-03-17T10:21:49;5.43;;;2.20;;
18804;SDS011;9530;48.930;9.526;2023-03-17T10:24:18;4.00;;;1.80;;
18804;SDS011;9530;48.930;9.526;2023-03-17T10:26:47;2.30;;;1.70;;
18804;SDS011;9530;48.930;9.526;2023-03-17T10:29:16;2.97;;;1.60;;
18804;SDS011;9530;48.930;9.526;2023-03-17T10:31:47;2.57;;;1.73;;
18804;SDS011;9530;48.930;9.526;2023-03-17T10:34:14;4.13;;;1.80;;
18804;SDS011;9530;48.930;9.526;2023-03-17T10:36:43;1.93;;;1.40;;
18804;SDS011;9530;48.930;9.526;2023-03-17T10:39:13;2.87;;;1.60;;
18804;SDS011;9530;48.930;9.526;2023-03-17T10:41:45;2.53;;;1.70;;
18804;SDS011;9530;48.930;9.526;2023-03-17T10:44:25;2.23;;;1.53;;
18804;SDS011;9530;48.930;9.526;2023-03-17T10:47:01;1.73;;;1.47;;
18804;SDS011;9530;48.930;9.526;2023-03-17T10:49:28;1.70;;;1.43;;
18804;SDS011;9530;48.930;9.526;2023-03-17T10:52:00;1.87;;;1.43;;
18804;SDS011;9530;48.930;9.526;2023-03-17T10:54:32;4.13;;;1.60;;
18804;SDS011;9530;48.930;9.526;2023-03-17T10:57:01;2.20;;;1.57;;
18804;SDS011;9530;48.930;9.526;2023-03-17T10:59:36;2.17;;;1.40;;
18804;SDS011;9530;48.930;9.526;2023-03-17T11:02:15;2.80;;;1.60;;
18804;SDS011;9530;48.930;9.526;2023-03-17T11:04:45;1.73;;;1.13;;
18804;SDS011;9530;48.930;9.526;2023-03-17T11:07:14;2.90;;;1.43;;
18804;SDS011;9530;48.930;9.526;2023-03-17T11:09:42;3.87;;;1.30;;
18804;SDS011;9530;48.930;9.526;2023-03-17T11:12:18;3.60;;;1.40;;
18804;SDS011;9530;48.930;9.526;2023-03-17T11:14:49;2.23;;;1.40;;
18804;SDS011;9530;48.930;9.526;2023-03-17T11:17:23;2.80;;;1.40;;
18804;SDS011;9530;48.930;9.526;2023-03-17T11:20:01;1.40;;;1.10;;
18804;SDS011;9530;48.930;9.526;2023-03-17T11:22:39;1.90;;;1.30;;
18804;SDS011;9530;48.930;9.526;2023-03-17T11:25:09;2.40;;;1.20;;
18804;SDS011;9530;48.930;9.526;2023-03-17T11:27:39;3.17;;;1.30;;
18804;SDS011;9530;48.930;9.526;2023-03-17T11:30:13;1.57;;;1.20;;
18804;SDS011;9530;48.930;9.526;2023-03-17T11:32:50;8.13;;;3.13;;
18804;SDS011;9530;48.930;9.526;2023-03-17T11:35:23;1.93;;;1.30;;
18804;SDS011;9530;48.930;9.526;2023-03-17T11:38:03;3.67;;;1.40;;
18804;SDS011;9530;48.930;9.526;2023-03-17T11:40:52;4.17;;;1.73;;
18804;SDS011;9530;48.930;9.526;2023-03-17T11:43:28;3.00;;;1.50;;
18804;SDS011;9530;48.930;9.526;2023-03-17T11:46:02;1.40;;;1.00;;
18804;SDS011;9530;48.930;9.526;2023-03-17T11:48:38;1.80;;;1.13;;
18804;SDS011;9530;48.930;9.526;2023-03-17T11:51:13;3.27;;;1.20;;
18804;SDS011;9530;48.930;9.526;2023-03-17T11:53:49;1.57;;;1.00;;
18804;SDS011;9530;48.930;9.526;2023-03-17T11:56:36;1.90;;;1.13;;
18804;SDS011;9530;48.930;9.526;2023-03-17T11:59:10;1.40;;;1.10;;
18804;SDS011;9530;48.930;9.526;2023-03-17T12:01:47;1.93;;;1.40;;
18804;SDS011;9530;48.930;9.526;2023-03-17T12:04:23;1.90;;;1.27;;
18804;SDS011;9530;48.930;9.526;2023-03-17T12:06:55;2.60;;;1.20;;
18804;SDS011;9530;48.930;9.526;2023-03-17T12:09:29;1.90;;;1.20;;
18804;SDS011;9530;48.930;9.526;2023-03-17T12:11:57;1.30;;;1.00;;
18804;SDS011;9530;48.930;9.526;2023-03-17T12:14:27;1.30;;;1.10;;
18804;SDS011;9530;48.930;9.526;2023-03-17T12:16:59;1.73;;;1.00;;
18804;SDS011;9530;48.930;9.526;2023-03-17T12:19:34;2.37;;;1.40;;
18804;SDS011;9530;48.930;9.526;2023-03-17T12:22:08;1.70;;;1.10;;
18804;SDS011;9530;48.930;9.526;2023-03-17T12:24:46;1.73;;;1.20;;
18804;SDS011;9530;48.930;9.526;2023-03-17T12:27:22;1.90;;;1.10;;
18804;SDS011;9530;48.930;9.526;2023-03-17T12:29:53;1.83;;;1.17;;
18804;SDS011;9530;48.930;9.526;2023-03-17T12:32:25;1.83;;;1.10;;
18804;SDS011;9530;48.930;9.526;2023-03-17T12:35:01;1.20;;;1.00;;
18804;SDS011;9530;48.930;9.526;2023-03-17T12:37:36;4.10;;;1.17;;
18804;SDS011;9530;48.930;9.526;2023-03-17T12:40:07;3.23;;;1.00;;
18804;SDS011;9530;48.930;9.526;2023-03-17T12:42:41;1.40;;;1.20;;
18804;SDS011;9530;48.930;9.526;2023-03-17T12:48:15;1.33;;;0.93;;
18804;SDS011;9530;48.930;9.526;2023-03-17T12:51:09;1.93;;;1.10;;
18804;SDS011;9530;48.930;9.526;2023-03-17T12:53:49;1.47;;;1.10;;
18804;SDS011;9530;48.930;9.526;2023-03-17T12:56:18;2.67;;;1.20;;
18804;SDS011;9530;48.930;9.526;2023-03-17T12:58:47;1.70;;;1.00;;
18804;SDS011;9530;48.930;9.526;2023-03-17T13:01:17;2.67;;;1.03;;
18804;SDS011;9530;48.930;9.526;2023-03-17T13:03:55;4.00;;;1.33;;
18804;SDS011;9530;48.930;9.526;2023-03-17T13:06:29;1.50;;;1.33;;
18804;SDS011;9530;48.930;9.526;2023-03-17T13:11:58;1.60;;;1.10;;
18804;SDS011;9530;48.930;9.526;2023-03-17T13:14:27;2.40;;;0.90;;
18804;SDS011;9530;48.930;9.526;2023-03-17T13:20:16;1.87;;;1.20;;
18804;SDS011;9530;48.930;9.526;2023-03-17T13:25:46;1.63;;;1.13;;
18804;SDS011;9530;48.930;9.526;2023-03-17T13:28:16;1.00;;;0.90;;
18804;SDS011;9530;48.930;9.526;2023-03-17T13:31:06;2.00;;;1.40;;
18804;SDS011;9530;48.930;9.526;2023-03-17T13:33:39;1.50;;;1.10;;
18804;SDS011;9530;48.930;9.526;2023-03-17T13:36:13;5.13;;;1.20;;
18804;SDS011;9530;48.930;9.526;2023-03-17T13:39:00;2.37;;;1.20;;
18804;SDS011;9530;48.930;9.526;2023-03-17T13:41:46;1.60;;;1.13;;
18804;SDS011;9530;48.930;9.526;2023-03-17T13:44:29;3.03;;;1.30;;
18804;SDS011;9530;48.930;9.526;2023-03-17T13:49:52;2.93;;;1.17;;
18804;SDS011;9530;48.930;9.526;2023-03-17T13:52:24;3.43;;;1.30;;
18804;SDS011;9530;48.930;9.526;2023-03-17T13:54:59;1.33;;;1.10;;
18804;SDS011;9530;48.930;9.526;2023-03-17T13:57:35;1.57;;;1.17;;
18804;SDS011;9530;48.930;9.526;2023-03-17T14:00:06;2.00;;;1.20;;
18804;SDS011;9530;48.930;9.526;2023-03-17T14:02:46;2.50;;;1.30;;
18804;SDS011;9530;48.930;9.526;2023-03-17T14:05:17;2.60;;;1.10;;
18804;SDS011;9530;48.930;9.526;2023-03-17T14:07:47;3.47;;;1.37;;
18804;SDS011;9530;48.930;9.526;2023-03-17T14:10:21;3.40;;;1.20;;
18804;SDS011;9530;48.930;9.526;2023-03-17T14:12:53;2.57;;;1.20;;
18804;SDS011;9530;48.930;9.526;2023-03-17T14:15:26;3.23;;;1.20;;
18804;SDS011;9530;48.930;9.526;2023-03-17T14:17:58;1.43;;;1.10;;
18804;SDS011;9530;48.930;9.526;2023-03-17T14:20:28;4.60;;;1.40;;
18804;SDS011;9530;48.930;9.526;2023-03-17T14:22:55;2.93;;;1.10;;
18804;SDS011;9530;48.930;9.526;2023-03-17T14:25:25;2.40;;;1.20;;
18804;SDS011;9530;48.930;9.526;2023-03-17T14:27:58;2.47;;;1.30;;
18804;SDS011;9530;48.930;9.526;2023-03-17T14:30:26;1.83;;;1.10;;
18804;SDS011;9530;48.930;9.526;2023-03-17T14:32:56;1.70;;;1.20;;
18804;SDS011;9530;48.930;9.526;2023-03-17T14:35:30;3.53;;;1.20;;
18804;SDS011;9530;48.930;9.526;2023-03-17T14:37:58;2.13;;;1.10;;
18804;SDS011;9530;48.930;9.526;2023-03-17T14:40:25;2.53;;;1.10;;
18804;SDS011;9530;48.930;9.526;2023-03-17T14:42:53;3.27;;;1.00;;
18804;SDS011;9530;48.930;9.526;2023-03-17T14:45:25;1.33;;;0.97;;
18804;SDS011;9530;48.930;9.526;2023-03-17T14:47:54;1.50;;;1.07;;
18804;SDS011;9530;48.930;9.526;2023-03-17T14:50:23;1.73;;;1.13;;
18804;SDS011;9530;48.930;9.526;2023-03-17T14:52:52;1.80;;;1.20;;
18804;SDS011;9530;48.930;9.526;2023-03-17T14:55:20;2.23;;;1.17;;
18804;SDS011;9530;48.930;9.526;2023-03-17T14:57:47;2.73;;;1.00;;
18804;SDS011;9530;48.930;9.526;2023-03-17T15:00:26;1.97;;;1.30;;
18804;SDS011;9530;48.930;9.526;2023-03-17T15:02:58;2.53;;;1.00;;
18804;SDS011;9530;48.930;9.526;2023-03-17T15:05:27;2.17;;;1.23;;
18804;SDS011;9530;48.930;9.526;2023-03-17T15:08:02;2.10;;;1.10;;
18804;SDS011;9530;48.930;9.526;2023-03-17T15:11:22;1.87;;;1.10;;
18804;SDS011;9530;48.930;9.526;2023-03-17T15:13:55;2.83;;;1.10;;
18804;SDS011;9530;48.930;9.526;2023-03-17T15:16:32;2.73;;;1.40;;
18804;SDS011;9530;48.930;9.526;2023-03-17T15:19:04;4.67;;;2.13;;
18804;SDS011;9530;48.930;9.526;2023-03-17T15:21:34;9.23;;;3.43;;
18804;SDS011;9530;48.930;9.526;2023-03-17T15:24:05;6.37;;;2.63;;
18804;SDS011;9530;48.930;9.526;2023-03-17T15:26:46;4.93;;;2.50;;
18804;SDS011;9530;48.930;9.526;2023-03-17T15:29:13;4.73;;;2.47;;
18804;SDS011;9530;48.930;9.526;2023-03-17T15:31:41;5.00;;;2.70;;
18804;SDS011;9530;48.930;9.526;2023-03-17T15:34:08;4.97;;;2.10;;
18804;SDS011;9530;48.930;9.526;2023-03-17T15:36:36;2.43;;;1.57;;